sensor_id;sensor_type;location;lat;lon;timestamp;temperature;humidity
79698;SHT31;69168;42.708;23.286;2023-09-18T00:00:51;20.62;66.61
79698;SHT31;69168;42.708;23.286;2023-09-18T00:03:20;20.65;66.50
79698;SHT31;69168;42.708;23.286;2023-09-18T00:05:47;20.65;66.54
79698;SHT31;69168;42.708;23.286;2023-09-18T00:08:16;20.52;66.82
79698;SHT31;69168;42.708;23.286;2023-09-18T00:10:42;20.54;66.87
79698;SHT31;69168;42.708;23.286;2023-09-18T00:13:08;20.62;66.64
79698;SHT31;69168;42.708;23.286;2023-09-18T00:15:36;20.64;66.75
79698;SHT31;69168;42.708;23.286;2023-09-18T00:18:03;20.59;66.88
79698;SHT31;69168;42.708;23.286;2023-09-18T00:20:29;20.61;66.86
79698;SHT31;69168;42.708;23.286;2023-09-18T00:22:54;20.62;66.72
79698;SHT31;69168;42.708;23.286;2023-09-18T00:25:21;20.54;66.89
79698;SHT31;69168;42.708;23.286;2023-09-18T00:27:46;20.51;67.05
79698;SHT31;69168;42.708;23.286;2023-09-18T00:30:12;20.48;67.11
79698;SHT31;69168;42.708;23.286;2023-09-18T00:32:37;20.52;66.78
79698;SHT31;69168;42.708;23.286;2023-09-18T00:35:03;20.38;67.17
79698;SHT31;69168;42.708;23.286;2023-09-18T00:37:29;20.33;67.38
79698;SHT31;69168;42.708;23.286;2023-09-18T00:39:54;20.41;67.07
79698;SHT31;69168;42.708;23.286;2023-09-18T00:42:20;20.47;66.92
79698;SHT31;69168;42.708;23.286;2023-09-18T00:44:48;20.45;66.87
79698;SHT31;69168;42.708;23.286;2023-09-18T00:47:14;20.41;66.95
79698;SHT31;69168;42.708;23.286;2023-09-18T00:49:41;20.43;66.83
79698;SHT31;69168;42.708;23.286;2023-09-18T00:52:08;20.43;66.74
79698;SHT31;69168;42.708;23.286;2023-09-18T00:54:35;20.40;66.80
79698;SHT31;69168;42.708;23.286;2023-09-18T00:57:01;20.49;66.62
79698;SHT31;69168;42.708;23.286;2023-09-18T00:59:27;20.48;66.71
79698;SHT31;69168;42.708;23.286;2023-09-18T01:01:53;20.28;67.08
79698;SHT31;69168;42.708;23.286;2023-09-18T01:04:19;20.41;66.64
79698;SHT31;69168;42.708;23.286;2023-09-18T01:06:45;20.37;66.81
79698;SHT31;69168;42.708;23.286;2023-09-18T01:09:11;20.30;67.01
79698;SHT31;69168;42.708;23.286;2023-09-18T01:14:17;20.33;66.92
79698;SHT31;69168;42.708;23.286;2023-09-18T01:16:53;20.40;66.60
79698;SHT31;69168;42.708;23.286;2023-09-18T01:19:40;20.31;66.69
79698;SHT31;69168;42.708;23.286;2023-09-18T01:22:07;20.18;66.95
79698;SHT31;69168;42.708;23.286;2023-09-18T01:24:33;20.31;66.78
79698;SHT31;69168;42.708;23.286;2023-09-18T01:27:00;20.27;66.75
79698;SHT31;69168;42.708;23.286;2023-09-18T01:29:25;20.30;66.80
79698;SHT31;69168;42.708;23.286;2023-09-18T01:31:50;20.30;66.55
79698;SHT31;69168;42.708;23.286;2023-09-18T01:34:21;20.28;66.46
79698;SHT31;69168;42.708;23.286;2023-09-18T01:36:51;20.34;66.57
79698;SHT31;69168;42.708;23.286;2023-09-18T01:39:18;20.28;66.42
79698;SHT31;69168;42.708;23.286;2023-09-18T01:41:45;20.14;66.81
79698;SHT31;69168;42.708;23.286;2023-09-18T01:44:11;20.16;66.72
79698;SHT31;69168;42.708;23.286;2023-09-18T01:46:36;20.09;66.95
79698;SHT31;69168;42.708;23.286;2023-09-18T01:49:03;20.09;67.01
79698;SHT31;69168;42.708;23.286;2023-09-18T01:51:29;20.10;66.83
79698;SHT31;69168;42.708;23.286;2023-09-18T01:53:55;20.13;66.81
79698;SHT31;69168;42.708;23.286;2023-09-18T01:56:21;20.13;66.70
79698;SHT31;69168;42.708;23.286;2023-09-18T01:58:46;20.17;66.52
79698;SHT31;69168;42.708;23.286;2023-09-18T02:01:12;20.09;66.73
79698;SHT31;69168;42.708;23.286;2023-09-18T02:03:37;20.09;66.74
79698;SHT31;69168;42.708;23.286;2023-09-18T02:06:07;20.14;66.52
79698;SHT31;69168;42.708;23.286;2023-09-18T02:08:34;20.05;66.59
79698;SHT31;69168;42.708;23.286;2023-09-18T02:10:59;19.97;66.84
79698;SHT31;69168;42.708;23.286;2023-09-18T02:13:25;20.03;66.84
79698;SHT31;69168;42.708;23.286;2023-09-18T02:15:51;20.00;66.69
79698;SHT31;69168;42.708;23.286;2023-09-18T02:18:16;20.09;66.62
79698;SHT31;69168;42.708;23.286;2023-09-18T02:20:43;20.12;66.42
79698;SHT31;69168;42.708;23.286;2023-09-18T02:23:12;20.01;66.79
79698;SHT31;69168;42.708;23.286;2023-09-18T02:25:38;20.00;66.94
79698;SHT31;69168;42.708;23.286;2023-09-18T02:28:05;20.00;66.81
79698;SHT31;69168;42.708;23.286;2023-09-18T02:30:31;20.03;66.73
79698;SHT31;69168;42.708;23.286;2023-09-18T02:32:56;20.01;66.77
79698;SHT31;69168;42.708;23.286;2023-09-18T02:35:22;20.03;66.65
79698;SHT31;69168;42.708;23.286;2023-09-18T02:37:47;20.16;66.32
79698;SHT31;69168;42.708;23.286;2023-09-18T02:40:13;20.05;66.41
79698;SHT31;69168;42.708;23.286;2023-09-18T02:42:38;20.06;66.29
79698;SHT31;69168;42.708;23.286;2023-09-18T02:45:04;20.01;66.49
79698;SHT31;69168;42.708;23.286;2023-09-18T02:47:29;20.03;66.31
79698;SHT31;69168;42.708;23.286;2023-09-18T02:49:55;19.94;66.49
79698;SHT31;69168;42.708;23.286;2023-09-18T02:52:20;19.94;66.44
79698;SHT31;69168;42.708;23.286;2023-09-18T02:54:45;20.00;66.37
79698;SHT31;69168;42.708;23.286;2023-09-18T02:57:11;19.87;66.64
79698;SHT31;69168;42.708;23.286;2023-09-18T02:59:36;19.93;66.60
79698;SHT31;69168;42.708;23.286;2023-09-18T03:02:02;19.90;66.59
79698;SHT31;69168;42.708;23.286;2023-09-18T03:04:29;19.90;66.56
79698;SHT31;69168;42.708;23.286;2023-09-18T03:06:55;19.79;66.76
79698;SHT31;69168;42.708;23.286;2023-09-18T03:09:20;19.85;66.75
79698;SHT31;69168;42.708;23.286;2023-09-18T03:11:46;19.87;66.78
79698;SHT31;69168;42.708;23.286;2023-09-18T03:14:12;19.89;66.57
79698;SHT31;69168;42.708;23.286;2023-09-18T03:16:37;19.79;66.76
79698;SHT31;69168;42.708;23.286;2023-09-18T03:19:03;19.78;66.80
79698;SHT31;69168;42.708;23.286;2023-09-18T03:21:28;19.83;66.63
79698;SHT31;69168;42.708;23.286;2023-09-18T03:23:56;19.79;66.88
79698;SHT31;69168;42.708;23.286;2023-09-18T03:26:23;19.89;66.58
79698;SHT31;69168;42.708;23.286;2023-09-18T03:28:48;19.73;66.90
79698;SHT31;69168;42.708;23.286;2023-09-18T03:31:13;19.69;67.05
79698;SHT31;69168;42.708;23.286;2023-09-18T03:33:39;19.69;67.14
79698;SHT31;69168;42.708;23.286;2023-09-18T03:36:04;19.73;67.00
79698;SHT31;69168;42.708;23.286;2023-09-18T03:38:30;19.73;67.01
79698;SHT31;69168;42.708;23.286;2023-09-18T03:40:55;19.65;67.11
79698;SHT31;69168;42.708;23.286;2023-09-18T03:43:21;19.62;67.33
79698;SHT31;69168;42.708;23.286;2023-09-18T03:45:46;19.57;67.70
79698;SHT31;69168;42.708;23.286;2023-09-18T03:48:12;19.57;67.66
79698;SHT31;69168;42.708;23.286;2023-09-18T03:50:38;19.61;67.66
79698;SHT31;69168;42.708;23.286;2023-09-18T03:53:03;19.63;67.58
79698;SHT31;69168;42.708;23.286;2023-09-18T03:55:29;19.55;67.79
79698;SHT31;69168;42.708;23.286;2023-09-18T03:57:55;19.51;67.84
79698;SHT31;69168;42.708;23.286;2023-09-18T04:00:21;19.57;67.79
79698;SHT31;69168;42.708;23.286;2023-09-18T04:02:47;19.48;67.78
79698;SHT31;69168;42.708;23.286;2023-09-18T04:05:13;19.47;67.81
79698;SHT31;69168;42.708;23.286;2023-09-18T04:07:38;19.55;67.50
79698;SHT31;69168;42.708;23.286;2023-09-18T04:10:04;19.41;68.02
79698;SHT31;69168;42.708;23.286;2023-09-18T04:12:33;19.27;68.30
79698;SHT31;69168;42.708;23.286;2023-09-18T04:14:59;19.24;68.37
79698;SHT31;69168;42.708;23.286;2023-09-18T04:17:24;19.31;68.32
79698;SHT31;69168;42.708;23.286;2023-09-18T04:19:50;19.31;68.18
79698;SHT31;69168;42.708;23.286;2023-09-18T04:22:15;19.21;68.52
79698;SHT31;69168;42.708;23.286;2023-09-18T04:24:41;19.31;68.19
79698;SHT31;69168;42.708;23.286;2023-09-18T04:27:06;19.24;68.31
79698;SHT31;69168;42.708;23.286;2023-09-18T04:29:32;19.13;68.58
79698;SHT31;69168;42.708;23.286;2023-09-18T04:31:57;19.21;68.45
79698;SHT31;69168;42.708;23.286;2023-09-18T04:34:26;19.28;68.44
79698;SHT31;69168;42.708;23.286;2023-09-18T04:36:51;19.24;68.41
79698;SHT31;69168;42.708;23.286;2023-09-18T04:39:17;19.25;68.23
79698;SHT31;69168;42.708;23.286;2023-09-18T04:41:42;19.18;68.33
79698;SHT31;69168;42.708;23.286;2023-09-18T04:44:07;19.18;68.58
79698;SHT31;69168;42.708;23.286;2023-09-18T04:46:33;19.28;68.29
79698;SHT31;69168;42.708;23.286;2023-09-18T04:49:00;19.18;68.40
79698;SHT31;69168;42.708;23.286;2023-09-18T04:51:25;19.20;68.54
79698;SHT31;69168;42.708;23.286;2023-09-18T04:53:51;19.20;68.69
79698;SHT31;69168;42.708;23.286;2023-09-18T04:56:17;19.21;68.55
79698;SHT31;69168;42.708;23.286;2023-09-18T04:58:43;19.28;68.32
79698;SHT31;69168;42.708;23.286;2023-09-18T05:01:08;19.27;68.19
79698;SHT31;69168;42.708;23.286;2023-09-18T05:03:36;19.27;68.23
79698;SHT31;69168;42.708;23.286;2023-09-18T05:06:02;19.31;68.03
79698;SHT31;69168;42.708;23.286;2023-09-18T05:08:30;19.35;68.08
79698;SHT31;69168;42.708;23.286;2023-09-18T05:10:56;19.34;68.46
79698;SHT31;69168;42.708;23.286;2023-09-18T05:13:22;19.32;68.47
79698;SHT31;69168;42.708;23.286;2023-09-18T05:15:48;19.39;68.38
79698;SHT31;69168;42.708;23.286;2023-09-18T05:18:13;19.32;68.51
79698;SHT31;69168;42.708;23.286;2023-09-18T05:20:39;19.41;68.30
79698;SHT31;69168;42.708;23.286;2023-09-18T05:23:05;19.39;68.15
79698;SHT31;69168;42.708;23.286;2023-09-18T05:25:30;19.35;68.42
79698;SHT31;69168;42.708;23.286;2023-09-18T05:27:58;19.34;68.61
79698;SHT31;69168;42.708;23.286;2023-09-18T05:30:30;19.38;68.73
79698;SHT31;69168;42.708;23.286;2023-09-18T05:33:00;19.52;68.48
79698;SHT31;69168;42.708;23.286;2023-09-18T05:35:34;19.51;68.20
79698;SHT31;69168;42.708;23.286;2023-09-18T05:38:03;19.59;67.79
79698;SHT31;69168;42.708;23.286;2023-09-18T05:40:36;19.66;67.88
79698;SHT31;69168;42.708;23.286;2023-09-18T05:43:02;19.73;67.73
79698;SHT31;69168;42.708;23.286;2023-09-18T05:45:27;19.75;67.56
79698;SHT31;69168;42.708;23.286;2023-09-18T05:47:54;19.80;67.23
79698;SHT31;69168;42.708;23.286;2023-09-18T05:50:29;19.78;67.33
79698;SHT31;69168;42.708;23.286;2023-09-18T05:52:58;19.85;67.16
79698;SHT31;69168;42.708;23.286;2023-09-18T05:55:32;19.87;67.42
79698;SHT31;69168;42.708;23.286;2023-09-18T05:57:58;19.90;67.34
79698;SHT31;69168;42.708;23.286;2023-09-18T06:00:24;20.05;67.09
79698;SHT31;69168;42.708;23.286;2023-09-18T06:02:50;20.06;66.82
79698;SHT31;69168;42.708;23.286;2023-09-18T06:05:19;20.14;66.72
79698;SHT31;69168;42.708;23.286;2023-09-18T06:07:48;20.30;66.48
79698;SHT31;69168;42.708;23.286;2023-09-18T06:10:13;20.31;66.27
79698;SHT31;69168;42.708;23.286;2023-09-18T06:12:39;20.38;66.21
79698;SHT31;69168;42.708;23.286;2023-09-18T06:15:07;20.52;66.08
79698;SHT31;69168;42.708;23.286;2023-09-18T06:17:36;20.54;65.95
79698;SHT31;69168;42.708;23.286;2023-09-18T06:20:02;20.62;65.79
79698;SHT31;69168;42.708;23.286;2023-09-18T06:22:28;20.68;65.27
79698;SHT31;69168;42.708;23.286;2023-09-18T06:24:54;20.71;65.18
79698;SHT31;69168;42.708;23.286;2023-09-18T06:27:19;20.68;65.26
79698;SHT31;69168;42.708;23.286;2023-09-18T06:29:44;20.78;65.19
79698;SHT31;69168;42.708;23.286;2023-09-18T06:32:10;20.78;64.94
79698;SHT31;69168;42.708;23.286;2023-09-18T06:34:35;21.03;63.82
79698;SHT31;69168;42.708;23.286;2023-09-18T06:37:01;20.92;64.08
79698;SHT31;69168;42.708;23.286;2023-09-18T06:39:28;20.99;63.64
79698;SHT31;69168;42.708;23.286;2023-09-18T06:41:54;20.88;64.16
79698;SHT31;69168;42.708;23.286;2023-09-18T06:44:19;20.99;64.11
79698;SHT31;69168;42.708;23.286;2023-09-18T06:46:44;20.99;63.99
79698;SHT31;69168;42.708;23.286;2023-09-18T06:49:10;21.14;63.41
79698;SHT31;69168;42.708;23.286;2023-09-18T06:51:35;21.07;63.92
79698;SHT31;69168;42.708;23.286;2023-09-18T06:54:01;21.00;64.48
79698;SHT31;69168;42.708;23.286;2023-09-18T06:56:28;21.13;63.81
79698;SHT31;69168;42.708;23.286;2023-09-18T06:58:53;21.19;63.55
79698;SHT31;69168;42.708;23.286;2023-09-18T07:01:20;21.16;64.15
79698;SHT31;69168;42.708;23.286;2023-09-18T07:03:47;21.33;63.74
79698;SHT31;69168;42.708;23.286;2023-09-18T07:06:14;21.54;62.92
79698;SHT31;69168;42.708;23.286;2023-09-18T07:08:43;21.47;63.18
79698;SHT31;69168;42.708;23.286;2023-09-18T07:11:08;21.40;63.42
79698;SHT31;69168;42.708;23.286;2023-09-18T07:13:34;21.44;63.02
79698;SHT31;69168;42.708;23.286;2023-09-18T07:15:59;21.34;63.25
79698;SHT31;69168;42.708;23.286;2023-09-18T07:18:24;21.41;63.13
79698;SHT31;69168;42.708;23.286;2023-09-18T07:20:50;21.40;63.10
79698;SHT31;69168;42.708;23.286;2023-09-18T07:23:16;21.36;63.17
79698;SHT31;69168;42.708;23.286;2023-09-18T07:25:41;21.43;63.05
79698;SHT31;69168;42.708;23.286;2023-09-18T07:28:08;21.44;63.18
79698;SHT31;69168;42.708;23.286;2023-09-18T07:30:34;21.64;62.24
79698;SHT31;69168;42.708;23.286;2023-09-18T07:33:02;21.59;62.30
79698;SHT31;69168;42.708;23.286;2023-09-18T07:35:28;21.59;62.66
79698;SHT31;69168;42.708;23.286;2023-09-18T07:37:53;21.58;62.47
79698;SHT31;69168;42.708;23.286;2023-09-18T07:40:19;21.66;62.09
79698;SHT31;69168;42.708;23.286;2023-09-18T07:42:44;21.69;62.07
79698;SHT31;69168;42.708;23.286;2023-09-18T07:45:11;21.86;61.40
79698;SHT31;69168;42.708;23.286;2023-09-18T07:47:37;21.79;61.65
79698;SHT31;69168;42.708;23.286;2023-09-18T07:50:03;21.75;61.60
79698;SHT31;69168;42.708;23.286;2023-09-18T07:52:29;21.96;61.37
79698;SHT31;69168;42.708;23.286;2023-09-18T07:54:56;21.98;61.16
79698;SHT31;69168;42.708;23.286;2023-09-18T07:57:23;21.99;61.31
79698;SHT31;69168;42.708;23.286;2023-09-18T07:59:49;22.19;60.39
79698;SHT31;69168;42.708;23.286;2023-09-18T08:02:15;22.06;60.97
79698;SHT31;69168;42.708;23.286;2023-09-18T08:04:41;22.00;61.30
79698;SHT31;69168;42.708;23.286;2023-09-18T08:07:07;21.99;60.80
79698;SHT31;69168;42.708;23.286;2023-09-18T08:09:33;22.26;59.23
79698;SHT31;69168;42.708;23.286;2023-09-18T08:12:06;21.98;59.89
79698;SHT31;69168;42.708;23.286;2023-09-18T08:14:31;22.12;60.01
79698;SHT31;69168;42.708;23.286;2023-09-18T08:16:58;22.02;60.46
79698;SHT31;69168;42.708;23.286;2023-09-18T08:19:24;22.14;60.51
79698;SHT31;69168;42.708;23.286;2023-09-18T08:21:56;22.09;60.27
79698;SHT31;69168;42.708;23.286;2023-09-18T08:24:22;22.02;60.76
79698;SHT31;69168;42.708;23.286;2023-09-18T08:26:48;22.09;60.94
79698;SHT31;69168;42.708;23.286;2023-09-18T08:29:14;22.09;60.59
79698;SHT31;69168;42.708;23.286;2023-09-18T08:31:42;22.16;60.41
79698;SHT31;69168;42.708;23.286;2023-09-18T08:34:07;22.21;60.34
79698;SHT31;69168;42.708;23.286;2023-09-18T08:36:33;22.20;60.19
79698;SHT31;69168;42.708;23.286;2023-09-18T08:38:58;22.27;60.08
79698;SHT31;69168;42.708;23.286;2023-09-18T08:41:28;22.36;59.37
79698;SHT31;69168;42.708;23.286;2023-09-18T08:44:00;22.33;59.28
79698;SHT31;69168;42.708;23.286;2023-09-18T08:46:26;22.27;59.38
79698;SHT31;69168;42.708;23.286;2023-09-18T08:48:53;22.37;59.03
79698;SHT31;69168;42.708;23.286;2023-09-18T08:51:19;22.40;58.96
79698;SHT31;69168;42.708;23.286;2023-09-18T08:53:45;22.64;58.41
79698;SHT31;69168;42.708;23.286;2023-09-18T08:56:12;22.50;58.72
79698;SHT31;69168;42.708;23.286;2023-09-18T08:58:39;22.51;58.77
79698;SHT31;69168;42.708;23.286;2023-09-18T09:01:08;22.64;58.34
79698;SHT31;69168;42.708;23.286;2023-09-18T09:03:41;22.71;58.07
79698;SHT31;69168;42.708;23.286;2023-09-18T09:06:09;22.69;57.98
79698;SHT31;69168;42.708;23.286;2023-09-18T09:08:35;22.76;57.34
79698;SHT31;69168;42.708;23.286;2023-09-18T09:11:01;23.02;56.09
79698;SHT31;69168;42.708;23.286;2023-09-18T09:13:27;22.81;57.04
79698;SHT31;69168;42.708;23.286;2023-09-18T09:15:57;22.79;57.41
79698;SHT31;69168;42.708;23.286;2023-09-18T09:18:27;22.92;57.38
79698;SHT31;69168;42.708;23.286;2023-09-18T09:21:03;23.06;57.13
79698;SHT31;69168;42.708;23.286;2023-09-18T09:26:17;23.19;56.05
79698;SHT31;69168;42.708;23.286;2023-09-18T09:28:43;23.24;55.94
79698;SHT31;69168;42.708;23.286;2023-09-18T09:31:09;23.30;56.12
79698;SHT31;69168;42.708;23.286;2023-09-18T09:33:49;23.55;53.36
79698;SHT31;69168;42.708;23.286;2023-09-18T09:36:16;23.68;52.66
79698;SHT31;69168;42.708;23.286;2023-09-18T09:38:41;23.89;52.35
79698;SHT31;69168;42.708;23.286;2023-09-18T09:41:13;23.97;51.93
79698;SHT31;69168;42.708;23.286;2023-09-18T09:43:42;23.82;52.66
79698;SHT31;69168;42.708;23.286;2023-09-18T09:46:15;23.85;53.43
79698;SHT31;69168;42.708;23.286;2023-09-18T09:49:00;23.97;52.87
79698;SHT31;69168;42.708;23.286;2023-09-18T09:51:27;23.99;51.94
79698;SHT31;69168;42.708;23.286;2023-09-18T09:53:52;24.08;52.27
79698;SHT31;69168;42.708;23.286;2023-09-18T09:56:18;24.18;52.12
79698;SHT31;69168;42.708;23.286;2023-09-18T09:58:44;24.26;52.09
79698;SHT31;69168;42.708;23.286;2023-09-18T10:01:25;24.35;51.80
79698;SHT31;69168;42.708;23.286;2023-09-18T10:03:54;24.53;51.14
79698;SHT31;69168;42.708;23.286;2023-09-18T10:06:20;24.68;50.37
79698;SHT31;69168;42.708;23.286;2023-09-18T10:08:46;24.87;49.85
79698;SHT31;69168;42.708;23.286;2023-09-18T10:11:13;24.80;50.78
79698;SHT31;69168;42.708;23.286;2023-09-18T10:13:59;24.96;50.72
79698;SHT31;69168;42.708;23.286;2023-09-18T10:16:26;25.07;50.46
79698;SHT31;69168;42.708;23.286;2023-09-18T10:22:06;25.07;48.52
79698;SHT31;69168;42.708;23.286;2023-09-18T10:24:37;24.91;49.00
79698;SHT31;69168;42.708;23.286;2023-09-18T10:27:05;25.29;47.84
79698;SHT31;69168;42.708;23.286;2023-09-18T10:29:33;25.20;48.72
79698;SHT31;69168;42.708;23.286;2023-09-18T10:32:02;25.26;48.84
79698;SHT31;69168;42.708;23.286;2023-09-18T10:34:29;25.45;48.10
79698;SHT31;69168;42.708;23.286;2023-09-18T10:36:56;25.63;47.74
79698;SHT31;69168;42.708;23.286;2023-09-18T10:39:25;25.74;47.72
79698;SHT31;69168;42.708;23.286;2023-09-18T10:41:55;25.81;47.35
79698;SHT31;69168;42.708;23.286;2023-09-18T10:44:22;25.85;46.90
79698;SHT31;69168;42.708;23.286;2023-09-18T10:46:50;25.97;46.47
79698;SHT31;69168;42.708;23.286;2023-09-18T10:49:17;26.12;45.98
79698;SHT31;69168;42.708;23.286;2023-09-18T10:51:46;26.39;45.23
79698;SHT31;69168;42.708;23.286;2023-09-18T10:54:17;26.50;45.27
79698;SHT31;69168;42.708;23.286;2023-09-18T10:56:45;26.77;44.09
79698;SHT31;69168;42.708;23.286;2023-09-18T10:59:11;26.88;44.54
79698;SHT31;69168;42.708;23.286;2023-09-18T11:01:36;27.04;43.94
79698;SHT31;69168;42.708;23.286;2023-09-18T11:04:04;27.20;43.36
79698;SHT31;69168;42.708;23.286;2023-09-18T11:09:20;27.53;43.00
79698;SHT31;69168;42.708;23.286;2023-09-18T11:11:46;27.52;42.37
79698;SHT31;69168;42.708;23.286;2023-09-18T11:14:14;27.28;42.46
79698;SHT31;69168;42.708;23.286;2023-09-18T11:16:40;27.24;42.84
79698;SHT31;69168;42.708;23.286;2023-09-18T11:19:11;27.48;42.63
79698;SHT31;69168;42.708;23.286;2023-09-18T11:21:37;27.98;40.84
79698;SHT31;69168;42.708;23.286;2023-09-18T11:26:35;27.93;41.04
79698;SHT31;69168;42.708;23.286;2023-09-18T11:29:05;28.20;39.85
79698;SHT31;69168;42.708;23.286;2023-09-18T11:34:24;28.34;40.92
79698;SHT31;69168;42.708;23.286;2023-09-18T11:36:52;28.56;40.25
79698;SHT31;69168;42.708;23.286;2023-09-18T11:39:37;28.79;39.49
79698;SHT31;69168;42.708;23.286;2023-09-18T11:42:19;29.10;38.87
79698;SHT31;69168;42.708;23.286;2023-09-18T11:44:45;29.27;38.73
79698;SHT31;69168;42.708;23.286;2023-09-18T11:47:17;29.54;37.74
79698;SHT31;69168;42.708;23.286;2023-09-18T11:49:58;29.59;37.43
79698;SHT31;69168;42.708;23.286;2023-09-18T11:52:26;29.76;37.25
79698;SHT31;69168;42.708;23.286;2023-09-18T11:54:53;29.85;37.27
79698;SHT31;69168;42.708;23.286;2023-09-18T11:57:20;29.92;36.81
79698;SHT31;69168;42.708;23.286;2023-09-18T11:59:46;30.04;36.96
79698;SHT31;69168;42.708;23.286;2023-09-18T12:02:28;29.97;37.62
79698;SHT31;69168;42.708;23.286;2023-09-18T12:04:55;30.03;37.46
79698;SHT31;69168;42.708;23.286;2023-09-18T12:07:21;30.42;36.92
79698;SHT31;69168;42.708;23.286;2023-09-18T12:09:47;30.54;36.43
79698;SHT31;69168;42.708;23.286;2023-09-18T12:12:13;30.72;35.92
79698;SHT31;69168;42.708;23.286;2023-09-18T12:14:40;31.00;35.68
79698;SHT31;69168;42.708;23.286;2023-09-18T12:17:14;30.62;35.75
79698;SHT31;69168;42.708;23.286;2023-09-18T12:19:50;30.48;36.28
79698;SHT31;69168;42.708;23.286;2023-09-18T12:22:26;30.66;36.42
79698;SHT31;69168;42.708;23.286;2023-09-18T12:24:51;30.58;37.05
79698;SHT31;69168;42.708;23.286;2023-09-18T12:27:17;30.35;37.11
79698;SHT31;69168;42.708;23.286;2023-09-18T12:29:43;30.61;37.02
79698;SHT31;69168;42.708;23.286;2023-09-18T12:32:10;30.69;36.56
79698;SHT31;69168;42.708;23.286;2023-09-18T12:34:40;30.47;37.24
79698;SHT31;69168;42.708;23.286;2023-09-18T12:37:08;30.23;37.24
79698;SHT31;69168;42.708;23.286;2023-09-18T12:39:34;29.69;38.27
79698;SHT31;69168;42.708;23.286;2023-09-18T12:42:00;29.55;38.67
79698;SHT31;69168;42.708;23.286;2023-09-18T12:44:25;30.09;37.95
79698;SHT31;69168;42.708;23.286;2023-09-18T12:46:51;30.54;36.32
79698;SHT31;69168;42.708;23.286;2023-09-18T12:49:21;30.85;36.27
79698;SHT31;69168;42.708;23.286;2023-09-18T12:51:58;31.07;35.66
79698;SHT31;69168;42.708;23.286;2023-09-18T12:57:04;31.68;34.08
79698;SHT31;69168;42.708;23.286;2023-09-18T12:59:32;31.82;34.03
79698;SHT31;69168;42.708;23.286;2023-09-18T13:01:59;31.84;34.20
79698;SHT31;69168;42.708;23.286;2023-09-18T13:04:24;31.47;33.86
79698;SHT31;69168;42.708;23.286;2023-09-18T13:07:23;31.29;33.90
79698;SHT31;69168;42.708;23.286;2023-09-18T13:10:03;31.19;34.55
79698;SHT31;69168;42.708;23.286;2023-09-18T13:15:07;31.95;33.83
79698;SHT31;69168;42.708;23.286;2023-09-18T13:17:44;32.24;33.38
79698;SHT31;69168;42.708;23.286;2023-09-18T13:20:12;32.36;32.95
79698;SHT31;69168;42.708;23.286;2023-09-18T13:22:39;32.75;32.61
79698;SHT31;69168;42.708;23.286;2023-09-18T13:25:07;32.94;31.86
79698;SHT31;69168;42.708;23.286;2023-09-18T13:27:33;32.82;32.43
79698;SHT31;69168;42.708;23.286;2023-09-18T13:30:01;33.09;31.97
79698;SHT31;69168;42.708;23.286;2023-09-18T13:32:36;33.15;31.70
79698;SHT31;69168;42.708;23.286;2023-09-18T13:35:04;33.49;31.24
79698;SHT31;69168;42.708;23.286;2023-09-18T13:37:32;33.66;30.94
79698;SHT31;69168;42.708;23.286;2023-09-18T13:39:58;33.91;30.48
79698;SHT31;69168;42.708;23.286;2023-09-18T13:42:23;33.88;30.36
79698;SHT31;69168;42.708;23.286;2023-09-18T13:44:48;33.66;30.42
79698;SHT31;69168;42.708;23.286;2023-09-18T13:47:15;33.81;30.13
79698;SHT31;69168;42.708;23.286;2023-09-18T13:49:40;33.88;29.93
79698;SHT31;69168;42.708;23.286;2023-09-18T13:52:06;33.70;30.63
79698;SHT31;69168;42.708;23.286;2023-09-18T13:54:31;33.37;31.32
79698;SHT31;69168;42.708;23.286;2023-09-18T13:56:57;33.57;30.93
79698;SHT31;69168;42.708;23.286;2023-09-18T13:59:22;33.57;30.65
79698;SHT31;69168;42.708;23.286;2023-09-18T14:01:48;33.85;30.34
79698;SHT31;69168;42.708;23.286;2023-09-18T14:04:13;33.97;29.86
79698;SHT31;69168;42.708;23.286;2023-09-18T14:06:38;34.02;29.84
79698;SHT31;69168;42.708;23.286;2023-09-18T14:09:04;34.23;29.42
79698;SHT31;69168;42.708;23.286;2023-09-18T14:11:31;34.31;28.89
79698;SHT31;69168;42.708;23.286;2023-09-18T14:13:57;34.29;29.06
79698;SHT31;69168;42.708;23.286;2023-09-18T14:16:22;34.02;29.66
79698;SHT31;69168;42.708;23.286;2023-09-18T14:18:47;33.77;30.14
79698;SHT31;69168;42.708;23.286;2023-09-18T14:21:13;34.04;29.91
79698;SHT31;69168;42.708;23.286;2023-09-18T14:23:39;34.28;30.08
79698;SHT31;69168;42.708;23.286;2023-09-18T14:26:04;34.12;30.57
79698;SHT31;69168;42.708;23.286;2023-09-18T14:28:30;34.48;30.08
79698;SHT31;69168;42.708;23.286;2023-09-18T14:30:58;34.33;30.56
79698;SHT31;69168;42.708;23.286;2023-09-18T14:33:23;34.50;30.33
79698;SHT31;69168;42.708;23.286;2023-09-18T14:35:49;34.71;30.15
79698;SHT31;69168;42.708;23.286;2023-09-18T14:38:15;34.12;30.89
79698;SHT31;69168;42.708;23.286;2023-09-18T14:40:41;34.09;31.27
79698;SHT31;69168;42.708;23.286;2023-09-18T14:43:07;33.54;31.80
79698;SHT31;69168;42.708;23.286;2023-09-18T14:45:33;33.84;31.46
79698;SHT31;69168;42.708;23.286;2023-09-18T14:48:00;33.74;31.46
79698;SHT31;69168;42.708;23.286;2023-09-18T14:50:25;33.58;31.78
79698;SHT31;69168;42.708;23.286;2023-09-18T14:52:50;33.53;31.50
79698;SHT31;69168;42.708;23.286;2023-09-18T14:55:16;33.26;32.09
79698;SHT31;69168;42.708;23.286;2023-09-18T14:57:41;32.63;32.99
79698;SHT31;69168;42.708;23.286;2023-09-18T15:00:07;32.34;33.39
79698;SHT31;69168;42.708;23.286;2023-09-18T15:02:33;32.08;34.05
79698;SHT31;69168;42.708;23.286;2023-09-18T15:05:00;32.14;34.22
79698;SHT31;69168;42.708;23.286;2023-09-18T15:07:25;32.16;33.95
79698;SHT31;69168;42.708;23.286;2023-09-18T15:09:52;32.14;34.35
79698;SHT31;69168;42.708;23.286;2023-09-18T15:12:17;32.24;34.30
79698;SHT31;69168;42.708;23.286;2023-09-18T15:14:42;32.19;33.95
79698;SHT31;69168;42.708;23.286;2023-09-18T15:17:08;32.01;34.84
79698;SHT31;69168;42.708;23.286;2023-09-18T15:19:33;32.09;34.61
79698;SHT31;69168;42.708;23.286;2023-09-18T15:21:59;31.93;35.11
79698;SHT31;69168;42.708;23.286;2023-09-18T15:24:26;31.99;34.82
79698;SHT31;69168;42.708;23.286;2023-09-18T15:26:52;32.08;34.86
79698;SHT31;69168;42.708;23.286;2023-09-18T15:29:17;32.08;34.81
79698;SHT31;69168;42.708;23.286;2023-09-18T15:31:42;31.93;34.93
79698;SHT31;69168;42.708;23.286;2023-09-18T15:34:08;31.72;35.34
79698;SHT31;69168;42.708;23.286;2023-09-18T15:36:34;31.85;35.17